.
WxDataArchive / Data Records for 2016-01-01
2015-12-31 January 2016 2016-01-02

Data Records for Friday, 01 January 2016

Time	Temp	Chill	HIndex	Humid	Dewpt	 Wind 	HiWind	WindDir	Rain 	Barom
-----	----	-----	------	-----	-----	------	------	-------	-----	-----
00:00	28.4	28.4	28.4	73	20.9	2	4	270	0.00	30.254 
00:05	28.2	28.2	28.2	74	21.0	2	5	248	0.00	30.254 
00:10	28.2	28.2	28.2	73	20.7	3	9	248	0.00	30.254 
00:15	28.2	28.2	28.2	73	20.7	1	5	248	0.00	30.250 
00:20	28.1	28.1	28.1	73	20.6	2	5	292	0.00	30.250 
00:25	28.1	28.1	28.1	73	20.6	1	3	292	0.00	30.250 
00:30	28.1	28.1	28.1	73	20.6	2	4	270	0.00	30.241 
00:35	28.1	28.1	28.1	73	20.6	1	3	270	0.00	30.241 
00:40	28.1	28.1	28.1	73	20.6	1	3	270	0.00	30.241 
00:45	28.1	28.1	28.1	74	20.9	2	6	270	0.00	30.236 
00:50	28.1	28.1	28.1	74	20.9	2	4	270	0.00	30.236 
00:55	27.9	27.9	27.9	73	20.4	2	6	248	0.00	30.236 
01:00	27.6	27.6	27.6	70	19.1	3	6	270	0.00	30.237 
01:05	27.3	27.3	27.3	68	18.2	3	6	270	0.00	30.237 
01:10	27.2	27.2	27.2	68	18.1	2	6	292	0.00	30.237 
01:15	27.2	27.2	27.2	68	18.1	3	5	270	0.00	30.231 
01:20	27.0	27.0	27.0	68	17.9	3	6	270	0.00	30.231 
01:25	27.0	27.0	27.0	68	17.9	1	4	248	0.00	30.231 
01:30	26.7	26.7	26.7	68	17.6	2	5	270	0.00	30.224 
01:35	26.6	26.6	26.6	69	17.8	3	6	248	0.00	30.224 
01:40	26.4	26.4	26.4	69	17.6	2	6	270	0.00	30.224 
01:45	26.3	26.3	26.3	69	17.5	2	5	270	0.00	30.221 
01:50	26.1	26.1	26.1	70	17.7	1	4	270	0.00	30.221 
01:55	26.1	26.1	26.1	70	17.7	1	3	270	0.00	30.221 
02:00	26.0	26.0	26.0	70	17.6	2	5	248	0.00	30.220 
02:05	26.0	26.0	26.0	71	17.9	1	4	248	0.00	30.220 
02:10	25.8	25.8	25.8	71	17.7	1	4	248	0.00	30.220 
02:15	25.8	25.8	25.8	71	17.7	1	3	248	0.00	30.209 
02:20	25.7	25.7	25.7	72	17.9	1	4	248	0.00	30.209 
02:25	25.7	25.7	25.7	72	17.9	1	4	248	0.00	30.209 
02:30	25.6	25.6	25.6	73	18.2	1	2	248	0.00	30.214 
02:35	25.6	25.6	25.6	73	18.2	0	2	248	0.00	30.214 
02:40	25.6	25.6	25.6	73	18.2	1	4	248	0.00	30.214 
02:45	25.6	25.6	25.6	73	18.2	1	3	270	0.00	30.213 
02:50	25.4	25.4	25.4	73	18.0	1	5	248	0.00	30.213 
02:55	25.4	25.4	25.4	73	18.0	1	3	270	0.00	30.213 
03:00	25.4	25.4	25.4	73	18.0	0	2	270	0.00	30.216 
03:05	25.4	25.4	25.4	73	18.0	1	4	270	0.00	30.216 
03:10	25.4	25.4	25.4	73	18.0	1	3	270	0.00	30.216 
03:15	25.4	25.4	25.4	73	18.0	1	4	248	0.00	30.207 
03:20	25.3	25.3	25.3	74	18.2	1	3	248	0.00	30.207 
03:25	25.3	25.3	25.3	74	18.2	1	3	248	0.00	30.207 
03:30	25.3	25.3	25.3	74	18.2	1	3	248	0.00	30.205 
03:35	25.3	25.3	25.3	74	18.2	1	3	270	0.00	30.205 
03:40	25.3	25.3	25.3	75	18.5	1	4	270	0.00	30.205 
03:45	25.3	25.3	25.3	75	18.5	2	6	248	0.00	30.205 
03:50	25.1	25.1	25.1	76	18.6	1	3	248	0.00	30.205 
03:55	25.1	25.1	25.1	76	18.6	1	3	248	0.00	30.205 
04:00	25.0	25.0	25.0	77	18.8	1	5	248	0.00	30.195 
04:05	25.0	25.0	25.0	77	18.8	0	3	248	0.00	30.195 
04:10	25.0	25.0	25.0	77	18.8	1	4	248	0.00	30.195 
04:15	25.0	25.0	25.0	77	18.8	0	2	248	0.00	30.189 
04:20	24.8	24.8	24.8	78	18.9	1	3	248	0.00	30.189 
04:25	24.8	24.8	24.8	78	18.9	1	3	248	0.00	30.189 
04:30	24.8	24.8	24.8	79	19.2	1	3	248	0.00	30.176 
04:35	24.8	24.8	24.8	79	19.2	0	3	248	0.00	30.176 
04:40	25.0	25.0	25.0	80	19.7	1	3	248	0.00	30.176 
04:45	25.0	25.0	25.0	80	19.7	1	4	248	0.00	30.174 
04:50	25.1	25.1	25.1	80	19.8	1	5	248	0.00	30.174 
04:55	25.1	25.1	25.1	80	19.8	0	3	292	0.00	30.174 
05:00	25.1	25.1	25.1	80	19.8	1	4	270	0.00	30.174 
05:05	25.1	25.1	25.1	80	19.8	1	5	248	0.00	30.174 
05:10	25.1	25.1	25.1	80	19.8	1	5	248	0.00	30.174 
05:15	25.1	25.1	25.1	80	19.8	1	5	248	0.00	30.174 
05:20	25.3	25.3	25.3	80	20.0	1	6	225	0.00	30.174 
05:25	25.1	25.1	25.1	80	19.8	1	3	248	0.00	30.174 
05:30	25.1	25.1	25.1	80	19.8	1	3	248	0.00	30.174 
05:35	25.1	25.1	25.1	80	19.8	1	4	248	0.00	30.174 
05:40	25.1	25.1	25.1	80	19.8	1	4	248	0.00	30.174 
05:45	25.0	25.0	25.0	80	19.7	0	3	248	0.00	30.168 
05:50	25.0	25.0	25.0	80	19.7	1	3	248	0.00	30.168 
05:55	25.0	25.0	25.0	80	19.7	1	4	248	0.00	30.168 
06:00	25.0	25.0	25.0	80	19.7	1	5	248	0.00	30.167 
06:05	25.0	25.0	25.0	80	19.7	2	5	270	0.00	30.167 
06:10	25.0	25.0	25.0	80	19.7	1	5	248	0.00	30.167 
06:15	25.0	25.0	25.0	79	19.4	1	4	248	0.00	30.173 
06:20	25.0	25.0	25.0	79	19.4	1	5	248	0.00	30.173 
06:25	25.0	25.0	25.0	79	19.4	1	3	248	0.00	30.173 
06:30	25.0	25.0	25.0	79	19.4	2	6	248	0.00	30.173 
06:35	25.0	25.0	25.0	79	19.4	2	3	292	0.00	30.173 
06:40	25.0	25.0	25.0	79	19.4	2	4	248	0.00	30.173 
06:45	25.0	25.0	25.0	79	19.4	1	4	248	0.00	30.174 
06:50	25.0	25.0	25.0	79	19.4	2	4	248	0.00	30.174 
06:55	25.0	25.0	25.0	79	19.4	1	3	248	0.00	30.174 
07:00	25.0	25.0	25.0	79	19.4	1	5	292	0.00	30.175 
07:05	25.0	25.0	25.0	79	19.4	2	5	270	0.00	30.175 
07:10	25.0	25.0	25.0	78	19.1	2	5	248	0.00	30.175 
07:15	25.0	25.0	25.0	78	19.1	1	3	248	0.00	30.174 
07:20	24.8	24.8	24.8	78	18.9	1	4	248	0.00	30.174 
07:25	24.8	24.8	24.8	78	18.9	2	4	248	0.00	30.174 
07:30	24.8	24.8	24.8	78	18.9	1	5	248	0.00	30.170 
07:35	24.8	24.8	24.8	78	18.9	2	6	248	0.00	30.170 
07:40	24.7	24.7	24.7	77	18.5	1	4	248	0.00	30.170 
07:45	24.7	24.7	24.7	77	18.5	1	4	248	0.00	30.175 
07:50	24.8	24.8	24.8	77	18.6	1	4	248	0.00	30.175 
07:55	24.8	24.8	24.8	78	18.9	1	4	248	0.00	30.175 
08:00	24.8	24.8	24.8	78	18.9	1	6	270	0.00	30.177 
08:05	24.8	24.8	24.8	77	18.6	1	4	270	0.00	30.177 
08:10	24.8	24.8	24.8	77	18.6	2	4	248	0.00	30.177 
08:15	24.7	24.7	24.7	76	18.2	2	5	248	0.00	30.183 
08:20	24.5	24.5	24.5	76	18.0	2	4	248	0.00	30.183 
08:25	24.5	24.5	24.5	76	18.0	2	5	248	0.00	30.183 
08:30	24.7	24.7	24.7	76	18.2	2	4	248	0.00	30.182 
08:35	24.7	24.7	24.7	77	18.5	1	3	248	0.00	30.182 
08:40	24.5	24.5	24.5	77	18.3	1	3	248	0.00	30.182 
08:45	24.5	24.5	24.5	76	18.0	2	6	248	0.00	30.175 
08:50	24.4	24.4	24.4	74	17.3	3	6	248	0.00	30.175 
08:55	24.2	24.2	24.2	73	16.8	1	3	248	0.00	30.175 
09:00	24.2	24.2	24.2	73	16.8	2	5	248	0.00	30.186 
09:05	24.1	24.1	24.1	73	16.7	2	7	248	0.00	30.186 
09:10	24.2	24.2	24.2	73	16.8	2	7	270	0.00	30.186 
09:15	24.4	24.4	24.4	72	16.7	2	5	248	0.00	30.191 
09:20	24.4	24.4	24.4	72	16.7	3	7	248	0.00	30.191 
09:25	24.4	24.4	24.4	72	16.7	2	6	248	0.00	30.191 
09:30	24.4	24.4	24.4	72	16.7	3	7	270	0.00	30.197 
09:35	24.5	24.5	24.5	73	17.1	2	5	248	0.00	30.197 
09:40	24.5	24.5	24.5	72	16.8	3	9	248	0.00	30.197 
09:45	24.5	24.5	24.5	72	16.8	2	6	248	0.00	30.205 
09:50	24.4	24.4	24.4	71	16.4	3	7	270	0.00	30.205 
09:55	24.4	24.4	24.4	71	16.4	3	9	270	0.00	30.205 
10:00	24.4	24.4	24.4	71	16.4	3	12	248	0.00	30.209 
10:05	24.4	24.4	24.4	71	16.4	3	6	270	0.00	30.209 
10:10	24.4	24.4	24.4	71	16.4	3	6	292	0.00	30.209 
10:15	24.4	24.4	24.4	71	16.4	3	7	270	0.00	30.210 
10:20	24.4	24.4	24.4	72	16.7	2	8	270	0.00	30.210 
10:25	24.4	24.4	24.4	72	16.7	3	5	270	0.00	30.210 
10:30	24.4	24.4	24.4	72	16.7	3	5	248	0.00	30.213 
10:35	24.4	24.4	24.4	72	16.7	2	4	248	0.00	30.213 
10:40	24.4	24.4	24.4	72	16.7	2	5	248	0.00	30.213 
10:45	24.2	24.2	24.2	73	16.8	2	5	270	0.00	30.219 
10:50	24.2	24.2	24.2	73	16.8	2	3	270	0.00	30.219 
10:55	24.2	24.2	24.2	73	16.8	2	6	270	0.00	30.219 
11:00	24.2	24.2	24.2	73	16.8	2	6	248	0.00	30.213 
11:05	24.2	24.2	24.2	73	16.8	3	6	270	0.00	30.213 
11:10	24.2	24.2	24.2	73	16.8	2	5	270	0.00	30.213 
11:15	24.4	24.4	24.4	73	17.0	2	4	270	0.00	30.213 
11:20	24.4	24.4	24.4	73	17.0	2	4	248	0.00	30.213 
11:25	24.4	24.4	24.4	72	16.7	2	9	248	0.00	30.213 
11:30	24.4	24.4	24.4	73	17.0	1	4	270	0.00	30.217 
11:35	24.2	24.2	24.2	74	17.1	2	4	270	0.00	30.217 
11:40	24.1	24.1	24.1	75	17.3	2	5	270	0.00	30.217 
11:45	23.9	23.9	23.9	76	17.5	1	4	270	0.00	30.211 
11:50	23.8	23.8	23.8	77	17.7	2	5	270	0.00	30.211 
11:55	23.6	23.6	23.6	77	17.5	2	5	270	0.00	30.211 
12:00	23.6	23.6	23.6	78	17.8	1	5	270	0.00	30.209 
12:05	23.6	23.6	23.6	78	17.8	2	5	270	0.00	30.209 
12:10	23.6	23.6	23.6	77	17.5	2	5	248	0.00	30.209 
12:15	23.8	23.8	23.8	75	17.1	2	6	270	0.00	30.209 
12:20	23.8	23.8	23.8	74	16.7	3	7	248	0.00	30.209 
12:25	24.1	24.1	24.1	73	16.7	2	4	270	0.00	30.209 
12:30	24.1	24.1	24.1	73	16.7	2	6	270	0.00	30.208 
12:35	24.1	24.1	24.1	73	16.7	2	5	270	0.00	30.208 
12:40	24.1	24.1	24.1	72	16.4	2	6	270	0.00	30.208 
12:45	24.2	24.2	24.2	73	16.8	2	6	270	0.00	30.200 
12:50	24.4	24.4	24.4	73	17.0	2	5	270	0.00	30.200 
12:55	24.2	24.2	24.2	73	16.8	3	5	270	0.00	30.200 
13:00	24.4	24.4	24.4	73	17.0	2	5	270	0.00	30.193 
13:05	24.5	24.5	24.5	73	17.1	2	5	270	0.00	30.193 
13:10	24.8	24.8	24.8	73	17.4	2	6	270	0.00	30.193 
13:15	25.0	25.0	25.0	73	17.6	2	6	292	0.00	30.191 
13:20	25.1	25.1	25.1	74	18.0	2	4	248	0.00	30.191 
13:25	24.8	24.8	24.8	75	18.0	2	6	270	0.00	30.191 
13:30	24.4	24.4	24.4	76	17.9	2	4	292	0.00	30.187 
13:35	24.4	24.4	24.4	76	17.9	2	4	292	0.00	30.187 
13:40	24.2	24.2	24.2	75	17.4	2	5	270	0.00	30.187 
13:45	24.4	24.4	24.4	74	17.3	2	5	270	0.00	30.184 
13:50	24.2	19.1	24.2	73	16.8	4	6	270	0.00	30.184 
13:55	24.1	24.1	24.1	75	17.3	2	6	270	0.00	30.184 
14:00	24.2	24.2	24.2	75	17.4	2	4	270	0.00	30.180 
14:05	24.4	24.4	24.4	72	16.7	3	5	270	0.00	30.180 
14:10	24.5	24.5	24.5	72	16.8	2	4	270	0.00	30.180 
14:15	24.7	24.7	24.7	71	16.7	2	5	270	0.00	30.182 
14:20	24.7	24.7	24.7	73	17.3	2	4	270	0.00	30.182 
14:25	24.7	24.7	24.7	72	17.0	2	5	270	0.00	30.182 
14:30	24.8	24.8	24.8	71	16.8	2	6	270	0.00	30.181 
14:35	25.0	25.0	25.0	72	17.3	1	4	270	0.00	30.181 
14:40	25.0	25.0	25.0	72	17.3	2	4	270	0.00	30.181 
14:45	25.0	25.0	25.0	72	17.3	1	4	248	0.00	30.180 
14:50	25.1	25.1	25.1	72	17.4	1	4	248	0.00	30.180 
14:55	25.1	25.1	25.1	72	17.4	2	6	248	0.00	30.180 
15:00	25.1	25.1	25.1	73	17.7	1	3	248	0.00	30.178 
15:05	25.3	25.3	25.3	73	17.9	1	4	248	0.00	30.178 
15:10	25.3	25.3	25.3	73	17.9	2	4	248	0.00	30.178 
15:15	25.3	25.3	25.3	72	17.6	2	5	248	0.00	30.177 
15:20	25.4	25.4	25.4	72	17.7	1	4	270	0.00	30.177 
15:25	25.4	25.4	25.4	72	17.7	1	4	248	0.00	30.177 
15:30	25.4	25.4	25.4	72	17.7	1	4	248	0.00	30.178 
15:35	25.6	25.6	25.6	72	17.8	1	4	248	0.00	30.178 
15:40	25.6	25.6	25.6	72	17.8	2	6	270	0.00	30.178 
15:45	25.6	25.6	25.6	72	17.8	2	4	270	0.00	30.180 
15:50	25.6	25.6	25.6	72	17.8	2	6	248	0.00	30.180 
15:55	25.6	25.6	25.6	71	17.5	2	4	248	0.00	30.180 
16:00	25.7	25.7	25.7	72	17.9	2	4	248	0.00	30.179 
16:05	25.7	25.7	25.7	72	17.9	1	4	248	0.00	30.179 
16:10	25.8	25.8	25.8	72	18.0	1	3	248	0.00	30.179 
16:15	25.8	25.8	25.8	72	18.0	1	5	248	0.00	30.179 
16:20	25.8	25.8	25.8	72	18.0	1	4	248	0.00	30.179 
16:25	26.0	26.0	26.0	72	18.2	1	4	248	0.00	30.179 
16:30	26.0	26.0	26.0	72	18.2	2	5	292	0.00	30.177 
16:35	26.0	26.0	26.0	72	18.2	1	4	270	0.00	30.177 
16:40	26.0	26.0	26.0	72	18.2	1	4	248	0.00	30.177 
16:45	26.0	26.0	26.0	71	17.9	2	4	248	0.00	30.176 
16:50	26.1	26.1	26.1	71	18.0	1	3	248	0.00	30.176 
16:55	26.1	26.1	26.1	72	18.3	1	4	248	0.00	30.176 
17:00	26.1	26.1	26.1	71	18.0	2	4	248	0.00	30.182 
17:05	26.1	26.1	26.1	72	18.3	1	7	248	0.00	30.182 
17:10	26.3	26.3	26.3	72	18.5	1	4	248	0.00	30.182 
17:15	26.3	26.3	26.3	72	18.5	1	4	248	0.00	30.181 
17:20	26.3	26.3	26.3	71	18.2	2	5	248	0.00	30.181 
17:25	26.3	26.3	26.3	71	18.2	2	7	248	0.00	30.181 
17:30	26.4	26.4	26.4	72	18.6	1	6	270	0.00	30.184 
17:35	26.4	26.4	26.4	71	18.3	2	3	270	0.00	30.184 
17:40	26.4	26.4	26.4	71	18.3	2	5	248	0.00	30.184 
17:45	26.6	26.6	26.6	72	18.8	1	4	248	0.00	30.189 
17:50	26.6	26.6	26.6	72	18.8	2	4	270	0.00	30.189 
17:55	26.6	26.6	26.6	72	18.8	2	10	270	0.00	30.189 
18:00	26.7	26.7	26.7	72	18.9	1	4	270	0.00	30.191 
18:05	26.7	26.7	26.7	72	18.9	1	3	248	0.00	30.191 
18:10	26.7	26.7	26.7	72	18.9	1	5	270	0.00	30.191 
18:15	26.7	26.7	26.7	72	18.9	1	3	270	0.00	30.180 
18:20	26.7	26.7	26.7	73	19.2	2	5	248	0.00	30.180 
18:25	26.9	26.9	26.9	73	19.4	2	4	248	0.00	30.180 
18:30	26.9	26.9	26.9	73	19.4	0	3	248	0.00	30.190 
18:35	26.9	26.9	26.9	73	19.4	1	3	248	0.00	30.190 
18:40	26.9	26.9	26.9	73	19.4	0	4	248	0.00	30.190 
18:45	26.9	26.9	26.9	73	19.4	2	6	248	0.00	30.186 
18:50	26.9	26.9	26.9	73	19.4	1	4	248	0.00	30.186 
18:55	26.9	26.9	26.9	73	19.4	0	2	248	0.00	30.186 
19:00	26.9	26.9	26.9	73	19.4	1	5	248	0.00	30.181 
19:05	26.9	26.9	26.9	73	19.4	1	3	270	0.00	30.181 
19:10	26.9	26.9	26.9	73	19.4	1	3	270	0.00	30.181 
19:15	26.7	26.7	26.7	73	19.2	1	5	248	0.00	30.183 
19:20	26.9	26.9	26.9	74	19.7	1	4	248	0.00	30.183 
19:25	26.7	26.7	26.7	74	19.5	1	4	248	0.00	30.183 
19:30	26.7	26.7	26.7	74	19.5	1	4	270	0.00	30.190 
19:35	26.7	26.7	26.7	74	19.5	1	5	248	0.00	30.190 
19:40	26.7	26.7	26.7	74	19.5	1	4	248	0.00	30.190 
19:45	26.7	26.7	26.7	74	19.5	1	5	248	0.00	30.183 
19:50	26.7	26.7	26.7	75	19.9	2	6	248	0.00	30.183 
19:55	26.9	26.9	26.9	75	20.1	1	3	270	0.00	30.183 
20:00	26.9	26.9	26.9	75	20.1	0	3	270	0.00	30.181 
20:05	26.9	26.9	26.9	75	20.1	2	5	270	0.00	30.181 
20:10	26.9	26.9	26.9	75	20.1	1	4	248	0.00	30.181 
20:15	27.0	27.0	27.0	76	20.5	1	4	248	0.00	30.180 
20:20	27.0	27.0	27.0	76	20.5	1	4	248	0.00	30.180 
20:25	27.0	27.0	27.0	76	20.5	1	8	248	0.00	30.180 
20:30	27.0	27.0	27.0	76	20.5	2	4	248	0.00	30.185 
20:35	27.0	27.0	27.0	76	20.5	2	4	248	0.00	30.185 
20:40	27.0	27.0	27.0	76	20.5	1	3	248	0.00	30.185 
20:45	27.0	27.0	27.0	76	20.5	2	6	248	0.00	30.179 
20:50	26.9	26.9	26.9	76	20.4	2	5	248	0.00	30.179 
20:55	26.9	26.9	26.9	76	20.4	1	6	248	0.00	30.179 
21:00	26.7	26.7	26.7	77	20.5	1	3	248	0.00	30.175 
21:05	26.7	26.7	26.7	77	20.5	1	6	248	0.00	30.175 
21:10	26.7	26.7	26.7	77	20.5	1	4	248	0.00	30.175 
21:15	26.6	26.6	26.6	77	20.4	1	5	248	0.00	30.174 
21:20	26.6	26.6	26.6	77	20.4	1	3	248	0.00	30.174 
21:25	26.6	26.6	26.6	77	20.4	0	2	248	0.00	30.174 
21:30	26.4	26.4	26.4	77	20.2	2	5	248	0.00	30.169 
21:35	26.4	26.4	26.4	77	20.2	1	4	248	0.00	30.169 
21:40	26.4	26.4	26.4	77	20.2	1	6	248	0.00	30.169 
21:45	26.4	26.4	26.4	77	20.2	1	4	248	0.00	30.163 
21:50	26.4	26.4	26.4	77	20.2	0	3	248	0.00	30.163 
21:55	26.4	26.4	26.4	77	20.2	1	4	248	0.00	30.163 
22:00	26.4	26.4	26.4	78	20.5	0	3	248	0.00	30.165 
22:05	26.4	26.4	26.4	78	20.5	1	4	248	0.00	30.165 
22:10	26.4	26.4	26.4	78	20.5	1	5	248	0.00	30.165 
22:15	26.4	26.4	26.4	78	20.5	0	3	248	0.00	30.167 
22:20	26.4	26.4	26.4	78	20.5	0	2	248	0.00	30.167 
22:25	26.3	26.3	26.3	79	20.7	0	2	248	0.00	30.167 
22:30	26.3	26.3	26.3	79	20.7	0	2	248	0.00	30.161 
22:35	26.3	26.3	26.3	79	20.7	0	2	248	0.00	30.161 
22:40	26.3	26.3	26.3	79	20.7	0	3	248	0.00	30.161 
22:45	26.3	26.3	26.3	80	21.0	0	4	248	0.00	30.164 
22:50	26.3	26.3	26.3	80	21.0	1	3	248	0.00	30.164 
22:55	26.3	26.3	26.3	80	21.0	0	3	248	0.00	30.164 
23:00	26.3	26.3	26.3	80	21.0	1	4	248	0.00	30.163 
23:05	26.3	26.3	26.3	80	21.0	0	3	248	0.00	30.163 
23:10	26.3	26.3	26.3	80	21.0	0	2	248	0.00	30.163 
23:15	26.1	26.1	26.1	81	21.1	0	3	248	0.00	30.162 
23:20	26.1	26.1	26.1	81	21.1	0	1	248	0.00	30.162 
23:25	26.1	26.1	26.1	81	21.1	0	2	248	0.00	30.162 
23:30	26.0	26.0	26.0	81	21.0	0	2	248	0.00	30.153 
23:35	26.0	26.0	26.0	81	21.0	0	3	248	0.00	30.153 
23:40	25.8	25.8	25.8	81	20.8	0	3	248	0.00	30.153 
23:45	25.8	25.8	25.8	81	20.8	0	3	248	0.00	30.149 
23:50	25.8	25.8	25.8	81	20.8	0	2	248	0.00	30.149 
23:55	25.8	25.8	25.8	82	21.1	0	3	248	0.00	30.149 

CoCoRaHS
IN-AL-39
A2 Web Hosting
Creative Commons License
GoDaddy
search engine by freefind advanced

loaded 2018-11-15 05:47:08 • last modified 2010-11-18 10:43:29
Privacy PolicyDisclaimer
• wx.awcolley.com is powered by PmWiki v.2002016 •
• all content (unless otherwise noted) © 2018 A W Colley